New Almelo, Kansas
Current Conditions -  °F | °C
As of 5:53 AM on Monday 22 Dec 2014 (Local Time) from KHLC Reporting Station
Overcast Overcast  
Wind Chill: 35°   Ceiling: 9500
Heat Index: 43°   Visibility: 10mi
Dew Point: 32°   Wind: 18mph
Humidity: 65%   Direction: 320°NW
Pressure: 29.57"   Gusts: NA
Location:  39.68°N, 99.7571°W
Report Text: KHLC 221153Z AUTO 32016KT 10SM OVC095 06/00 A2957 RMK AO2 SLP017 T00610000 10067 20017 53012
Loading
Personal Weather Stations






























Interactive Weather Map New forecast layout! Learn more

10-Day Weather Forecast

Advertisements
Track Severe Weather on mobile